Red Elm, South Dakota
Current Conditions -  °F | °C
As of 5:55 AM on Friday 28 Nov 2014 (Local Time) from KPHP Reporting Station
Clear Clear  
Wind Chill: -3°   Ceiling: Unl
Heat Index: -3°   Visibility: 10mi
Dew Point: -5°   Wind: 0mph
Humidity: 85%   Direction: NA
Pressure: 29.69"   Gusts: NA
Location:  45.0029°N, 101.639°W
Report Text: KPHP 281255Z AUTO 00000KT 10SM CLR M03/M05 A2969 RMK AO2 SLP072 T10281050
Loading
Personal Weather Stations






























Interactive Weather Map New forecast layout! Learn more

10-Day Weather Forecast

Advertisements
Track Severe Weather on mobile